Jones, Louisiana
Current Conditions -  °F | °C
As of 10:55 AM on Tuesday 27 Jan 2015 (Local Time) from KBQP Reporting Station
Clear Clear  
Wind Chill: 64°   Ceiling: Unl
Heat Index: 64°   Visibility: 10mi
Dew Point: 38°   Wind: 7mph
Humidity: 39%   Direction: 90°E
Pressure: 30.17"   Gusts: NA
Location:  32.97°N, 91.65°W
Report Text: KBQP 271655Z AUTO 09006KT 10SM CLR 18/04 A3017 RMK AO2 T01750035
Loading
Personal Weather Stations






























Interactive Weather Map New forecast layout! Learn more

10-Day Weather Forecast

Advertisements
Track Severe Weather on mobile